sensor_id;sensor_type;location;lat;lon;timestamp;temperature;humidity
19174;DHT22;9719;49.322;8.536;2023-08-24T00:01:20;20.10;82.50
19174;DHT22;9719;49.322;8.536;2023-08-24T00:06:23;20.10;81.80
19174;DHT22;9719;49.322;8.536;2023-08-24T00:11:25;20.40;79.30
19174;DHT22;9719;49.322;8.536;2023-08-24T00:16:27;20.60;78.50
19174;DHT22;9719;49.322;8.536;2023-08-24T00:21:30;20.90;75.90
19174;DHT22;9719;49.322;8.536;2023-08-24T00:26:32;21.30;73.90
19174;DHT22;9719;49.322;8.536;2023-08-24T00:31:34;21.50;72.20
19174;DHT22;9719;49.322;8.536;2023-08-24T00:36:37;21.70;71.60
19174;DHT22;9719;49.322;8.536;2023-08-24T00:41:38;21.70;71.00
19174;DHT22;9719;49.322;8.536;2023-08-24T00:46:41;21.70;70.70
19174;DHT22;9719;49.322;8.536;2023-08-24T00:51:44;21.70;71.50
19174;DHT22;9719;49.322;8.536;2023-08-24T00:56:46;21.70;72.10
19174;DHT22;9719;49.322;8.536;2023-08-24T01:01:48;21.50;71.80
19174;DHT22;9719;49.322;8.536;2023-08-24T01:06:52;21.30;73.70
19174;DHT22;9719;49.322;8.536;2023-08-24T01:11:59;21.10;74.30
19174;DHT22;9719;49.322;8.536;2023-08-24T01:17:04;21.00;75.00
19174;DHT22;9719;49.322;8.536;2023-08-24T01:22:20;20.90;74.90
19174;DHT22;9719;49.322;8.536;2023-08-24T01:27:26;20.80;76.50
19174;DHT22;9719;49.322;8.536;2023-08-24T01:32:30;20.60;77.60
19174;DHT22;9719;49.322;8.536;2023-08-24T01:37:32;20.50;78.70
19174;DHT22;9719;49.322;8.536;2023-08-24T01:42:36;20.30;79.40
19174;DHT22;9719;49.322;8.536;2023-08-24T01:47:39;20.10;80.50
19174;DHT22;9719;49.322;8.536;2023-08-24T01:52:42;19.90;81.50
19174;DHT22;9719;49.322;8.536;2023-08-24T01:57:45;19.70;83.90
19174;DHT22;9719;49.322;8.536;2023-08-24T02:02:47;19.50;83.90
19174;DHT22;9719;49.322;8.536;2023-08-24T02:07:49;19.60;83.90
19174;DHT22;9719;49.322;8.536;2023-08-24T02:12:52;19.80;83.20
19174;DHT22;9719;49.322;8.536;2023-08-24T02:17:53;19.60;83.30
19174;DHT22;9719;49.322;8.536;2023-08-24T02:22:56;19.30;84.80
19174;DHT22;9719;49.322;8.536;2023-08-24T02:27:59;19.40;85.30
19174;DHT22;9719;49.322;8.536;2023-08-24T02:33:01;19.60;85.20
19174;DHT22;9719;49.322;8.536;2023-08-24T02:38:03;19.60;84.60
19174;DHT22;9719;49.322;8.536;2023-08-24T02:43:06;19.60;84.30
19174;DHT22;9719;49.322;8.536;2023-08-24T02:48:08;19.70;84.30
19174;DHT22;9719;49.322;8.536;2023-08-24T02:53:09;19.80;83.70
19174;DHT22;9719;49.322;8.536;2023-08-24T02:58:12;19.60;84.10
19174;DHT22;9719;49.322;8.536;2023-08-24T03:03:14;19.70;85.10
19174;DHT22;9719;49.322;8.536;2023-08-24T03:08:16;19.50;85.20
19174;DHT22;9719;49.322;8.536;2023-08-24T03:13:19;19.60;84.80
19174;DHT22;9719;49.322;8.536;2023-08-24T03:18:21;19.60;85.00
19174;DHT22;9719;49.322;8.536;2023-08-24T03:23:22;19.50;84.50
19174;DHT22;9719;49.322;8.536;2023-08-24T03:28:25;19.40;86.30
19174;DHT22;9719;49.322;8.536;2023-08-24T03:33:27;19.30;86.90
19174;DHT22;9719;49.322;8.536;2023-08-24T03:38:29;19.40;86.00
19174;DHT22;9719;49.322;8.536;2023-08-24T03:43:33;19.80;85.40
19174;DHT22;9719;49.322;8.536;2023-08-24T03:48:35;19.90;84.70
19174;DHT22;9719;49.322;8.536;2023-08-24T03:53:37;20.30;83.20
19174;DHT22;9719;49.322;8.536;2023-08-24T03:58:40;20.40;82.10
19174;DHT22;9719;49.322;8.536;2023-08-24T04:03:42;20.50;81.60
19174;DHT22;9719;49.322;8.536;2023-08-24T04:08:44;20.60;82.00
19174;DHT22;9719;49.322;8.536;2023-08-24T04:13:47;20.50;81.40
19174;DHT22;9719;49.322;8.536;2023-08-24T04:18:48;20.60;81.30
19174;DHT22;9719;49.322;8.536;2023-08-24T04:23:50;20.70;81.40
19174;DHT22;9719;49.322;8.536;2023-08-24T04:28:53;20.10;82.50
19174;DHT22;9719;49.322;8.536;2023-08-24T04:33:55;20.10;84.00
19174;DHT22;9719;49.322;8.536;2023-08-24T04:38:56;20.00;83.90
19174;DHT22;9719;49.322;8.536;2023-08-24T04:43:59;19.70;85.40
19174;DHT22;9719;49.322;8.536;2023-08-24T04:49:01;19.40;87.10
19174;DHT22;9719;49.322;8.536;2023-08-24T04:54:03;19.40;88.20
19174;DHT22;9719;49.322;8.536;2023-08-24T04:59:06;19.50;87.60
19174;DHT22;9719;49.322;8.536;2023-08-24T05:04:08;19.40;86.50
19174;DHT22;9719;49.322;8.536;2023-08-24T05:09:10;19.70;87.10
19174;DHT22;9719;49.322;8.536;2023-08-24T05:14:13;19.70;86.80
19174;DHT22;9719;49.322;8.536;2023-08-24T05:19:15;19.90;86.00
19174;DHT22;9719;49.322;8.536;2023-08-24T05:24:16;20.00;86.20
19174;DHT22;9719;49.322;8.536;2023-08-24T05:29:19;20.30;85.90
19174;DHT22;9719;49.322;8.536;2023-08-24T05:34:21;20.40;86.70
19174;DHT22;9719;49.322;8.536;2023-08-24T05:39:22;20.60;87.60
19174;DHT22;9719;49.322;8.536;2023-08-24T05:44:25;20.90;85.40
19174;DHT22;9719;49.322;8.536;2023-08-24T05:49:27;21.00;84.90
19174;DHT22;9719;49.322;8.536;2023-08-24T05:54:29;20.70;84.10
19174;DHT22;9719;49.322;8.536;2023-08-24T05:59:33;20.60;83.30
19174;DHT22;9719;49.322;8.536;2023-08-24T06:04:34;20.60;83.90
19174;DHT22;9719;49.322;8.536;2023-08-24T06:09:36;20.70;83.70
19174;DHT22;9719;49.322;8.536;2023-08-24T06:14:39;21.00;82.60
19174;DHT22;9719;49.322;8.536;2023-08-24T06:19:41;21.20;80.10
19174;DHT22;9719;49.322;8.536;2023-08-24T06:24:42;21.40;79.20
19174;DHT22;9719;49.322;8.536;2023-08-24T06:29:45;21.70;78.90
19174;DHT22;9719;49.322;8.536;2023-08-24T06:34:47;21.60;78.20
19174;DHT22;9719;49.322;8.536;2023-08-24T06:39:49;21.50;77.80
19174;DHT22;9719;49.322;8.536;2023-08-24T06:44:52;21.80;76.90
19174;DHT22;9719;49.322;8.536;2023-08-24T06:49:53;21.80;76.10
19174;DHT22;9719;49.322;8.536;2023-08-24T06:54:55;22.00;75.50
19174;DHT22;9719;49.322;8.536;2023-08-24T06:59:58;21.90;73.50
19174;DHT22;9719;49.322;8.536;2023-08-24T07:05:00;21.70;74.20
19174;DHT22;9719;49.322;8.536;2023-08-24T07:10:06;22.00;73.50
19174;DHT22;9719;49.322;8.536;2023-08-24T07:15:10;22.30;72.60
19174;DHT22;9719;49.322;8.536;2023-08-24T07:20:11;23.00;69.20
19174;DHT22;9719;49.322;8.536;2023-08-24T07:25:13;23.60;69.70
19174;DHT22;9719;49.322;8.536;2023-08-24T07:30:17;24.00;67.40
19174;DHT22;9719;49.322;8.536;2023-08-24T07:35:19;23.60;67.90
19174;DHT22;9719;49.322;8.536;2023-08-24T07:40:20;24.70;64.50
19174;DHT22;9719;49.322;8.536;2023-08-24T07:45:23;24.80;66.10
19174;DHT22;9719;49.322;8.536;2023-08-24T07:50:25;24.50;67.40
19174;DHT22;9719;49.322;8.536;2023-08-24T07:55:27;24.50;66.40
19174;DHT22;9719;49.322;8.536;2023-08-24T08:00:30;24.60;67.40
19174;DHT22;9719;49.322;8.536;2023-08-24T08:05:32;24.70;66.70
19174;DHT22;9719;49.322;8.536;2023-08-24T08:10:33;24.50;67.50
19174;DHT22;9719;49.322;8.536;2023-08-24T08:15:37;24.70;66.00
19174;DHT22;9719;49.322;8.536;2023-08-24T08:20:39;25.10;62.60
19174;DHT22;9719;49.322;8.536;2023-08-24T08:25:41;25.50;61.30
19174;DHT22;9719;49.322;8.536;2023-08-24T08:30:48;25.70;52.70
19174;DHT22;9719;49.322;8.536;2023-08-24T08:35:50;26.00;53.00
19174;DHT22;9719;49.322;8.536;2023-08-24T08:40:53;26.20;50.70
19174;DHT22;9719;49.322;8.536;2023-08-24T08:45:58;26.80;50.20
19174;DHT22;9719;49.322;8.536;2023-08-24T08:51:00;27.10;49.60
19174;DHT22;9719;49.322;8.536;2023-08-24T08:56:03;27.80;45.20
19174;DHT22;9719;49.322;8.536;2023-08-24T09:01:06;28.10;44.40
19174;DHT22;9719;49.322;8.536;2023-08-24T09:06:09;28.50;41.50
19174;DHT22;9719;49.322;8.536;2023-08-24T09:11:10;28.60;42.70
19174;DHT22;9719;49.322;8.536;2023-08-24T09:16:14;28.90;40.20
19174;DHT22;9719;49.322;8.536;2023-08-24T09:21:17;29.30;40.10
19174;DHT22;9719;49.322;8.536;2023-08-24T09:26:27;29.50;35.70
19174;DHT22;9719;49.322;8.536;2023-08-24T09:31:36;29.40;34.60
19174;DHT22;9719;49.322;8.536;2023-08-24T09:36:39;29.60;33.00
19174;DHT22;9719;49.322;8.536;2023-08-24T09:41:46;29.90;33.60
19174;DHT22;9719;49.322;8.536;2023-08-24T09:46:50;30.30;31.90
19174;DHT22;9719;49.322;8.536;2023-08-24T09:51:52;30.50;29.70
19174;DHT22;9719;49.322;8.536;2023-08-24T09:56:58;30.80;27.00
19174;DHT22;9719;49.322;8.536;2023-08-24T10:02:03;30.70;31.90
19174;DHT22;9719;49.322;8.536;2023-08-24T10:07:10;31.10;29.90
19174;DHT22;9719;49.322;8.536;2023-08-24T10:12:20;31.00;41.20
19174;DHT22;9719;49.322;8.536;2023-08-24T10:17:26;30.70;42.10
19174;DHT22;9719;49.322;8.536;2023-08-24T10:22:29;30.50;30.40
19174;DHT22;9719;49.322;8.536;2023-08-24T10:27:32;30.70;29.60
19174;DHT22;9719;49.322;8.536;2023-08-24T10:32:35;30.90;26.10
19174;DHT22;9719;49.322;8.536;2023-08-24T10:37:38;31.60;25.50
19174;DHT22;9719;49.322;8.536;2023-08-24T10:42:43;31.70;24.80
19174;DHT22;9719;49.322;8.536;2023-08-24T10:47:47;31.50;24.90
19174;DHT22;9719;49.322;8.536;2023-08-24T10:52:54;31.50;29.40
19174;DHT22;9719;49.322;8.536;2023-08-24T10:57:56;31.40;26.20
19174;DHT22;9719;49.322;8.536;2023-08-24T11:03:00;31.80;24.00
19174;DHT22;9719;49.322;8.536;2023-08-24T11:08:03;32.20;22.50
19174;DHT22;9719;49.322;8.536;2023-08-24T11:13:07;32.70;21.00
19174;DHT22;9719;49.322;8.536;2023-08-24T11:18:24;33.40;20.30
19174;DHT22;9719;49.322;8.536;2023-08-24T11:23:27;33.40;19.70
19174;DHT22;9719;49.322;8.536;2023-08-24T11:28:30;33.90;19.10
19174;DHT22;9719;49.322;8.536;2023-08-24T11:33:34;34.00;21.40
19174;DHT22;9719;49.322;8.536;2023-08-24T11:38:37;33.90;19.10
19174;DHT22;9719;49.322;8.536;2023-08-24T11:43:39;33.70;21.00
19174;DHT22;9719;49.322;8.536;2023-08-24T11:48:43;33.70;28.10
19174;DHT22;9719;49.322;8.536;2023-08-24T11:53:46;33.50;22.50
19174;DHT22;9719;49.322;8.536;2023-08-24T11:58:49;34.20;20.40
19174;DHT22;9719;49.322;8.536;2023-08-24T12:03:53;34.10;33.40
19174;DHT22;9719;49.322;8.536;2023-08-24T12:08:55;33.90;35.10
19174;DHT22;9719;49.322;8.536;2023-08-24T12:13:57;33.70;35.00
19174;DHT22;9719;49.322;8.536;2023-08-24T12:19:00;33.80;23.00
19174;DHT22;9719;49.322;8.536;2023-08-24T12:24:04;34.20;21.70
19174;DHT22;9719;49.322;8.536;2023-08-24T12:29:08;34.60;21.60
19174;DHT22;9719;49.322;8.536;2023-08-24T12:34:15;34.40;33.20
19174;DHT22;9719;49.322;8.536;2023-08-24T12:39:16;34.30;33.70
19174;DHT22;9719;49.322;8.536;2023-08-24T12:44:18;34.40;34.20
19174;DHT22;9719;49.322;8.536;2023-08-24T12:49:21;34.60;33.50
19174;DHT22;9719;49.322;8.536;2023-08-24T12:54:23;34.30;34.50
19174;DHT22;9719;49.322;8.536;2023-08-24T12:59:25;34.10;35.40
19174;DHT22;9719;49.322;8.536;2023-08-24T13:04:28;33.80;36.00
19174;DHT22;9719;49.322;8.536;2023-08-24T13:09:30;34.10;36.40
19174;DHT22;9719;49.322;8.536;2023-08-24T13:14:32;34.50;21.80
19174;DHT22;9719;49.322;8.536;2023-08-24T13:19:35;35.50;20.60
19174;DHT22;9719;49.322;8.536;2023-08-24T13:24:37;35.60;21.00
19174;DHT22;9719;49.322;8.536;2023-08-24T13:29:40;35.70;21.20
19174;DHT22;9719;49.322;8.536;2023-08-24T13:34:43;35.20;20.80
19174;DHT22;9719;49.322;8.536;2023-08-24T13:39:45;35.00;21.10
19174;DHT22;9719;49.322;8.536;2023-08-24T13:44:47;35.50;31.80
19174;DHT22;9719;49.322;8.536;2023-08-24T13:49:50;34.20;37.20
19174;DHT22;9719;49.322;8.536;2023-08-24T13:54:51;33.60;39.80
19174;DHT22;9719;49.322;8.536;2023-08-24T13:59:53;33.50;41.30
19174;DHT22;9719;49.322;8.536;2023-08-24T14:04:56;32.80;43.50
19174;DHT22;9719;49.322;8.536;2023-08-24T14:09:58;32.00;46.00
19174;DHT22;9719;49.322;8.536;2023-08-24T14:15:00;31.60;47.00
19174;DHT22;9719;49.322;8.536;2023-08-24T14:20:03;31.30;47.60
19174;DHT22;9719;49.322;8.536;2023-08-24T14:25:06;31.10;50.40
19174;DHT22;9719;49.322;8.536;2023-08-24T14:30:08;30.70;51.60
19174;DHT22;9719;49.322;8.536;2023-08-24T14:35:12;30.30;53.60
19174;DHT22;9719;49.322;8.536;2023-08-24T14:40:13;29.90;54.90
19174;DHT22;9719;49.322;8.536;2023-08-24T14:45:16;29.00;57.60
19174;DHT22;9719;49.322;8.536;2023-08-24T14:50:20;28.20;65.60
19174;DHT22;9719;49.322;8.536;2023-08-24T14:55:21;26.30;70.30
19174;DHT22;9719;49.322;8.536;2023-08-24T15:00:23;25.80;69.70
19174;DHT22;9719;49.322;8.536;2023-08-24T15:05:26;25.10;74.20
19174;DHT22;9719;49.322;8.536;2023-08-24T15:10:28;25.10;71.50
19174;DHT22;9719;49.322;8.536;2023-08-24T15:15:29;25.50;68.80
19174;DHT22;9719;49.322;8.536;2023-08-24T15:20:32;26.00;67.60
19174;DHT22;9719;49.322;8.536;2023-08-24T15:25:34;25.90;69.20
19174;DHT22;9719;49.322;8.536;2023-08-24T15:30:36;26.30;67.10
19174;DHT22;9719;49.322;8.536;2023-08-24T15:35:40;26.90;64.90
19174;DHT22;9719;49.322;8.536;2023-08-24T15:40:51;27.50;63.30
19174;DHT22;9719;49.322;8.536;2023-08-24T15:45:53;27.90;61.90
19174;DHT22;9719;49.322;8.536;2023-08-24T15:50:58;28.00;65.80
19174;DHT22;9719;49.322;8.536;2023-08-24T15:55:59;27.70;66.50
19174;DHT22;9719;49.322;8.536;2023-08-24T16:01:01;27.80;66.50
19174;DHT22;9719;49.322;8.536;2023-08-24T16:06:05;27.80;66.60
19174;DHT22;9719;49.322;8.536;2023-08-24T16:11:06;27.70;66.00
19174;DHT22;9719;49.322;8.536;2023-08-24T16:16:08;27.70;66.70
19174;DHT22;9719;49.322;8.536;2023-08-24T16:21:11;27.70;67.00
19174;DHT22;9719;49.322;8.536;2023-08-24T16:26:13;27.70;66.20
19174;DHT22;9719;49.322;8.536;2023-08-24T16:31:14;27.60;65.80
19174;DHT22;9719;49.322;8.536;2023-08-24T16:36:17;27.30;71.30
19174;DHT22;9719;49.322;8.536;2023-08-24T16:41:19;26.80;75.20
19174;DHT22;9719;49.322;8.536;2023-08-24T16:46:21;26.40;75.30
19174;DHT22;9719;49.322;8.536;2023-08-24T16:51:24;26.20;74.20
19174;DHT22;9719;49.322;8.536;2023-08-24T16:56:26;26.00;72.30
19174;DHT22;9719;49.322;8.536;2023-08-24T17:01:28;25.80;72.90
19174;DHT22;9719;49.322;8.536;2023-08-24T17:06:31;25.60;72.30
19174;DHT22;9719;49.322;8.536;2023-08-24T17:11:32;25.30;72.80
19174;DHT22;9719;49.322;8.536;2023-08-24T17:16:34;25.40;71.50
19174;DHT22;9719;49.322;8.536;2023-08-24T17:21:37;25.30;72.00
19174;DHT22;9719;49.322;8.536;2023-08-24T17:26:39;25.20;71.10
19174;DHT22;9719;49.322;8.536;2023-08-24T17:31:40;24.90;80.50
19174;DHT22;9719;49.322;8.536;2023-08-24T17:36:43;23.40;87.90
19174;DHT22;9719;49.322;8.536;2023-08-24T17:41:45;22.90;88.10
19174;DHT22;9719;49.322;8.536;2023-08-24T17:46:47;22.50;90.10
19174;DHT22;9719;49.322;8.536;2023-08-24T17:51:50;22.40;93.30
19174;DHT22;9719;49.322;8.536;2023-08-24T17:56:52;22.10;95.40
19174;DHT22;9719;49.322;8.536;2023-08-24T18:01:54;22.00;98.20
19174;DHT22;9719;49.322;8.536;2023-08-24T18:06:57;22.00;98.80
19174;DHT22;9719;49.322;8.536;2023-08-24T18:11:59;22.30;99.80
19174;DHT22;9719;49.322;8.536;2023-08-24T18:17:00;22.10;98.90
19174;DHT22;9719;49.322;8.536;2023-08-24T18:22:04;22.10;98.80
19174;DHT22;9719;49.322;8.536;2023-08-24T18:27:05;22.20;98.70
19174;DHT22;9719;49.322;8.536;2023-08-24T18:32:07;22.00;99.60
19174;DHT22;9719;49.322;8.536;2023-08-24T21:31:21;21.50;99.90
19174;DHT22;9719;49.322;8.536;2023-08-24T21:36:23;21.50;99.90
19174;DHT22;9719;49.322;8.536;2023-08-24T21:41:24;21.30;99.90
19174;DHT22;9719;49.322;8.536;2023-08-24T21:46:27;21.40;99.90
19174;DHT22;9719;49.322;8.536;2023-08-24T21:51:30;21.40;99.90
19174;DHT22;9719;49.322;8.536;2023-08-24T21:56:32;21.20;99.90
19174;DHT22;9719;49.322;8.536;2023-08-24T22:01:35;21.40;99.90
19174;DHT22;9719;49.322;8.536;2023-08-24T22:06:36;21.50;99.90
19174;DHT22;9719;49.322;8.536;2023-08-24T22:11:38;21.50;99.90
19174;DHT22;9719;49.322;8.536;2023-08-24T22:16:41;21.40;99.90
19174;DHT22;9719;49.322;8.536;2023-08-24T22:21:43;21.30;99.90
19174;DHT22;9719;49.322;8.536;2023-08-24T22:26:45;21.40;99.90
19174;DHT22;9719;49.322;8.536;2023-08-24T22:31:48;21.30;99.90
19174;DHT22;9719;49.322;8.536;2023-08-24T22:36:49;21.30;99.90
19174;DHT22;9719;49.322;8.536;2023-08-24T22:41:51;21.10;99.90
19174;DHT22;9719;49.322;8.536;2023-08-24T22:46:55;21.10;99.90
19174;DHT22;9719;49.322;8.536;2023-08-24T22:51:56;21.10;99.90
19174;DHT22;9719;49.322;8.536;2023-08-24T22:56:58;21.10;99.90
19174;DHT22;9719;49.322;8.536;2023-08-24T23:02:01;21.20;99.90
19174;DHT22;9719;49.322;8.536;2023-08-24T23:07:04;21.00;99.90
19174;DHT22;9719;49.322;8.536;2023-08-24T23:12:07;21.10;99.90
19174;DHT22;9719;49.322;8.536;2023-08-24T23:17:11;21.10;99.90
19174;DHT22;9719;49.322;8.536;2023-08-24T23:22:13;21.00;99.90
19174;DHT22;9719;49.322;8.536;2023-08-24T23:27:15;21.00;99.90
19174;DHT22;9719;49.322;8.536;2023-08-24T23:32:18;20.90;99.90
19174;DHT22;9719;49.322;8.536;2023-08-24T23:37:20;21.00;99.90
19174;DHT22;9719;49.322;8.536;2023-08-24T23:42:22;21.00;99.90
19174;DHT22;9719;49.322;8.536;2023-08-24T23:47:25;21.00;99.90
19174;DHT22;9719;49.322;8.536;2023-08-24T23:52:27;21.00;99.90
19174;DHT22;9719;49.322;8.536;2023-08-24T23:57:29;21.00;99.90
